sensor_id;sensor_type;location;lat;lon;timestamp;P1;durP1;ratioP1;P2;durP2;ratioP2
11531;SDS011;5822;51.000;5.874;2022-12-29T00:00:49;13.80;;;13.10;;
11531;SDS011;5822;51.000;5.874;2022-12-29T00:03:15;13.60;;;12.90;;
11531;SDS011;5822;51.000;5.874;2022-12-29T00:05:40;13.90;;;13.20;;
11531;SDS011;5822;51.000;5.874;2022-12-29T00:08:06;13.90;;;13.20;;
11531;SDS011;5822;51.000;5.874;2022-12-29T00:10:32;13.73;;;13.03;;
11531;SDS011;5822;51.000;5.874;2022-12-29T00:12:58;13.40;;;12.80;;
11531;SDS011;5822;51.000;5.874;2022-12-29T00:15:42;13.48;;;12.77;;
11531;SDS011;5822;51.000;5.874;2022-12-29T00:18:07;13.07;;;12.47;;
11531;SDS011;5822;51.000;5.874;2022-12-29T00:20:34;13.05;;;12.45;;
11531;SDS011;5822;51.000;5.874;2022-12-29T00:23:36;12.80;;;12.20;;
11531;SDS011;5822;51.000;5.874;2022-12-29T00:26:20;13.05;;;12.45;;
11531;SDS011;5822;51.000;5.874;2022-12-29T00:29:04;12.95;;;12.35;;
11531;SDS011;5822;51.000;5.874;2022-12-29T00:31:50;13.05;;;12.45;;
11531;SDS011;5822;51.000;5.874;2022-12-29T00:34:34;12.45;;;11.85;;
11531;SDS011;5822;51.000;5.874;2022-12-29T00:37:19;12.85;;;12.25;;
11531;SDS011;5822;51.000;5.874;2022-12-29T00:40:05;12.50;;;11.90;;
11531;SDS011;5822;51.000;5.874;2022-12-29T00:43:06;12.50;;;11.90;;
11531;SDS011;5822;51.000;5.874;2022-12-29T00:45:50;12.75;;;12.15;;
11531;SDS011;5822;51.000;5.874;2022-12-29T00:48:16;13.00;;;12.40;;
11531;SDS011;5822;51.000;5.874;2022-12-29T00:51:01;12.90;;;12.30;;
11531;SDS011;5822;51.000;5.874;2022-12-29T00:53:27;12.98;;;12.38;;
11531;SDS011;5822;51.000;5.874;2022-12-29T00:55:53;13.30;;;12.60;;
11531;SDS011;5822;51.000;5.874;2022-12-29T00:58:18;13.00;;;12.40;;
11531;SDS011;5822;51.000;5.874;2022-12-29T01:00:44;12.60;;;12.00;;
11531;SDS011;5822;51.000;5.874;2022-12-29T01:03:09;12.50;;;11.90;;
11531;SDS011;5822;51.000;5.874;2022-12-29T01:05:36;13.02;;;12.43;;
11531;SDS011;5822;51.000;5.874;2022-12-29T01:08:02;13.00;;;12.40;;
11531;SDS011;5822;51.000;5.874;2022-12-29T01:10:27;13.25;;;12.57;;
11531;SDS011;5822;51.000;5.874;2022-12-29T01:12:53;13.10;;;12.40;;
11531;SDS011;5822;51.000;5.874;2022-12-29T01:15:19;13.05;;;12.45;;
11531;SDS011;5822;51.000;5.874;2022-12-29T01:17:44;13.00;;;12.40;;
11531;SDS011;5822;51.000;5.874;2022-12-29T01:20:10;13.27;;;12.67;;
11531;SDS011;5822;51.000;5.874;2022-12-29T01:22:37;13.27;;;12.57;;
11531;SDS011;5822;51.000;5.874;2022-12-29T01:25:03;13.10;;;12.50;;
11531;SDS011;5822;51.000;5.874;2022-12-29T01:27:30;13.00;;;12.40;;
11531;SDS011;5822;51.000;5.874;2022-12-29T01:29:55;14.43;;;13.73;;
11531;SDS011;5822;51.000;5.874;2022-12-29T01:32:21;13.60;;;12.90;;
11531;SDS011;5822;51.000;5.874;2022-12-29T01:34:47;13.20;;;12.60;;
11531;SDS011;5822;51.000;5.874;2022-12-29T01:37:13;13.40;;;12.70;;
11531;SDS011;5822;51.000;5.874;2022-12-29T01:39:38;13.40;;;12.80;;
11531;SDS011;5822;51.000;5.874;2022-12-29T01:42:04;13.83;;;13.13;;
11531;SDS011;5822;51.000;5.874;2022-12-29T01:47:15;12.90;;;12.30;;
11531;SDS011;5822;51.000;5.874;2022-12-29T01:49:47;12.68;;;12.07;;
11531;SDS011;5822;51.000;5.874;2022-12-29T01:52:13;12.90;;;12.30;;
11531;SDS011;5822;51.000;5.874;2022-12-29T01:54:40;12.90;;;12.30;;
11531;SDS011;5822;51.000;5.874;2022-12-29T01:57:13;12.90;;;12.30;;
11531;SDS011;5822;51.000;5.874;2022-12-29T01:59:43;13.20;;;12.60;;
11531;SDS011;5822;51.000;5.874;2022-12-29T02:02:14;13.50;;;12.80;;
11531;SDS011;5822;51.000;5.874;2022-12-29T02:04:41;13.80;;;13.10;;
11531;SDS011;5822;51.000;5.874;2022-12-29T02:07:14;13.32;;;12.63;;
11531;SDS011;5822;51.000;5.874;2022-12-29T02:09:46;13.40;;;12.70;;
11531;SDS011;5822;51.000;5.874;2022-12-29T02:12:14;13.20;;;12.60;;
11531;SDS011;5822;51.000;5.874;2022-12-29T02:14:40;13.38;;;12.68;;
11531;SDS011;5822;51.000;5.874;2022-12-29T02:28:50;14.00;;;13.30;;
11531;SDS011;5822;51.000;5.874;2022-12-29T02:31:15;13.73;;;13.02;;
11531;SDS011;5822;51.000;5.874;2022-12-29T02:33:49;13.40;;;12.70;;
11531;SDS011;5822;51.000;5.874;2022-12-29T02:36:47;13.35;;;12.65;;
11531;SDS011;5822;51.000;5.874;2022-12-29T02:39:18;13.27;;;12.57;;
11531;SDS011;5822;51.000;5.874;2022-12-29T02:49:41;13.90;;;13.20;;
11531;SDS011;5822;51.000;5.874;2022-12-29T02:52:33;13.60;;;12.90;;
11531;SDS011;5822;51.000;5.874;2022-12-29T02:55:08;12.98;;;12.38;;
11531;SDS011;5822;51.000;5.874;2022-12-29T02:57:36;12.48;;;11.90;;
11531;SDS011;5822;51.000;5.874;2022-12-29T03:00:05;12.70;;;12.10;;
11531;SDS011;5822;51.000;5.874;2022-12-29T03:07:47;13.05;;;12.45;;
11531;SDS011;5822;51.000;5.874;2022-12-29T03:13:04;14.00;;;13.23;;
11531;SDS011;5822;51.000;5.874;2022-12-29T03:16:45;13.05;;;12.45;;
11531;SDS011;5822;51.000;5.874;2022-12-29T03:19:02;12.80;;;12.20;;
11531;SDS011;5822;51.000;5.874;2022-12-29T03:21:41;12.40;;;11.90;;
11531;SDS011;5822;51.000;5.874;2022-12-29T03:24:38;12.32;;;11.82;;
11531;SDS011;5822;51.000;5.874;2022-12-29T03:27:09;12.40;;;11.80;;
11531;SDS011;5822;51.000;5.874;2022-12-29T03:29:42;12.82;;;12.23;;
11531;SDS011;5822;51.000;5.874;2022-12-29T03:32:12;12.90;;;12.30;;
11531;SDS011;5822;51.000;5.874;2022-12-29T03:34:39;13.00;;;12.40;;
11531;SDS011;5822;51.000;5.874;2022-12-29T03:37:12;13.77;;;13.07;;
11531;SDS011;5822;51.000;5.874;2022-12-29T03:39:41;12.82;;;12.23;;
11531;SDS011;5822;51.000;5.874;2022-12-29T03:42:14;12.70;;;12.10;;
11531;SDS011;5822;51.000;5.874;2022-12-29T03:44:45;12.35;;;11.85;;
11531;SDS011;5822;51.000;5.874;2022-12-29T03:47:12;12.70;;;12.10;;
11531;SDS011;5822;51.000;5.874;2022-12-29T03:49:39;12.60;;;12.00;;
11531;SDS011;5822;51.000;5.874;2022-12-29T03:52:05;12.95;;;12.35;;
11531;SDS011;5822;51.000;5.874;2022-12-29T03:54:31;13.00;;;12.40;;
11531;SDS011;5822;51.000;5.874;2022-12-29T03:56:57;13.50;;;12.80;;
11531;SDS011;5822;51.000;5.874;2022-12-29T03:59:23;13.07;;;12.48;;
11531;SDS011;5822;51.000;5.874;2022-12-29T04:01:49;13.50;;;12.90;;
11531;SDS011;5822;51.000;5.874;2022-12-29T04:04:14;12.80;;;12.20;;
11531;SDS011;5822;51.000;5.874;2022-12-29T04:06:40;13.00;;;12.40;;
11531;SDS011;5822;51.000;5.874;2022-12-29T04:09:06;12.80;;;12.20;;
11531;SDS011;5822;51.000;5.874;2022-12-29T04:11:32;12.80;;;12.20;;
11531;SDS011;5822;51.000;5.874;2022-12-29T04:13:58;13.33;;;12.73;;
11531;SDS011;5822;51.000;5.874;2022-12-29T04:16:24;13.50;;;12.80;;
11531;SDS011;5822;51.000;5.874;2022-12-29T04:18:49;13.93;;;13.23;;
11531;SDS011;5822;51.000;5.874;2022-12-29T04:21:15;13.27;;;12.57;;
11531;SDS011;5822;51.000;5.874;2022-12-29T04:23:40;13.05;;;12.45;;
11531;SDS011;5822;51.000;5.874;2022-12-29T04:26:06;13.50;;;12.80;;
11531;SDS011;5822;51.000;5.874;2022-12-29T04:28:33;13.15;;;12.45;;
11531;SDS011;5822;51.000;5.874;2022-12-29T04:31:00;13.00;;;12.40;;
11531;SDS011;5822;51.000;5.874;2022-12-29T04:33:26;13.00;;;12.40;;
11531;SDS011;5822;51.000;5.874;2022-12-29T04:35:52;13.18;;;12.57;;
11531;SDS011;5822;51.000;5.874;2022-12-29T04:38:19;13.68;;;12.98;;
11531;SDS011;5822;51.000;5.874;2022-12-29T04:40:45;13.45;;;12.75;;
11531;SDS011;5822;51.000;5.874;2022-12-29T04:43:12;14.10;;;13.40;;
11531;SDS011;5822;51.000;5.874;2022-12-29T04:45:39;12.80;;;12.20;;
11531;SDS011;5822;51.000;5.874;2022-12-29T04:48:08;13.40;;;12.70;;
11531;SDS011;5822;51.000;5.874;2022-12-29T04:50:34;12.87;;;12.27;;
11531;SDS011;5822;51.000;5.874;2022-12-29T04:53:02;13.00;;;12.40;;
11531;SDS011;5822;51.000;5.874;2022-12-29T04:55:28;13.38;;;12.73;;
11531;SDS011;5822;51.000;5.874;2022-12-29T04:57:54;13.50;;;12.80;;
11531;SDS011;5822;51.000;5.874;2022-12-29T05:00:20;13.50;;;12.80;;
11531;SDS011;5822;51.000;5.874;2022-12-29T05:02:46;15.00;;;14.20;;
11531;SDS011;5822;51.000;5.874;2022-12-29T05:05:11;16.20;;;15.40;;
11531;SDS011;5822;51.000;5.874;2022-12-29T05:07:37;22.13;;;21.10;;
11531;SDS011;5822;51.000;5.874;2022-12-29T05:10:03;24.27;;;23.13;;
11531;SDS011;5822;51.000;5.874;2022-12-29T05:12:30;28.57;;;27.27;;
11531;SDS011;5822;51.000;5.874;2022-12-29T05:14:57;32.35;;;30.88;;
11531;SDS011;5822;51.000;5.874;2022-12-29T05:17:23;30.00;;;28.60;;
11531;SDS011;5822;51.000;5.874;2022-12-29T05:19:48;28.30;;;27.00;;
11531;SDS011;5822;51.000;5.874;2022-12-29T05:22:14;17.60;;;16.70;;
11531;SDS011;5822;51.000;5.874;2022-12-29T05:24:39;17.63;;;16.73;;
11531;SDS011;5822;51.000;5.874;2022-12-29T05:27:05;17.20;;;16.30;;
11531;SDS011;5822;51.000;5.874;2022-12-29T05:29:31;17.43;;;16.53;;
11531;SDS011;5822;51.000;5.874;2022-12-29T05:31:57;23.67;;;22.57;;
11531;SDS011;5822;51.000;5.874;2022-12-29T05:34:22;23.17;;;22.07;;
11531;SDS011;5822;51.000;5.874;2022-12-29T05:36:48;28.70;;;27.35;;
11531;SDS011;5822;51.000;5.874;2022-12-29T05:39:13;16.90;;;16.00;;
11531;SDS011;5822;51.000;5.874;2022-12-29T05:41:39;18.80;;;17.88;;
11531;SDS011;5822;51.000;5.874;2022-12-29T05:44:05;17.60;;;16.60;;
11531;SDS011;5822;51.000;5.874;2022-12-29T05:46:30;22.60;;;21.50;;
11531;SDS011;5822;51.000;5.874;2022-12-29T05:48:56;24.55;;;23.35;;
11531;SDS011;5822;51.000;5.874;2022-12-29T05:51:22;25.52;;;24.25;;
11531;SDS011;5822;51.000;5.874;2022-12-29T05:53:48;17.88;;;16.90;;
11531;SDS011;5822;51.000;5.874;2022-12-29T05:56:13;16.77;;;15.90;;
11531;SDS011;5822;51.000;5.874;2022-12-29T05:58:39;16.50;;;15.60;;
11531;SDS011;5822;51.000;5.874;2022-12-29T06:01:04;17.20;;;16.20;;
11531;SDS011;5822;51.000;5.874;2022-12-29T06:03:30;22.58;;;21.45;;
11531;SDS011;5822;51.000;5.874;2022-12-29T06:05:56;23.50;;;22.30;;
11531;SDS011;5822;51.000;5.874;2022-12-29T06:08:21;28.23;;;26.92;;
11531;SDS011;5822;51.000;5.874;2022-12-29T06:10:47;27.15;;;25.75;;
11531;SDS011;5822;51.000;5.874;2022-12-29T06:13:13;28.30;;;26.90;;
11531;SDS011;5822;51.000;5.874;2022-12-29T06:15:38;17.10;;;16.20;;
11531;SDS011;5822;51.000;5.874;2022-12-29T06:18:04;17.50;;;16.60;;
11531;SDS011;5822;51.000;5.874;2022-12-29T06:20:29;16.80;;;15.90;;
11531;SDS011;5822;51.000;5.874;2022-12-29T06:22:55;23.30;;;22.10;;
11531;SDS011;5822;51.000;5.874;2022-12-29T06:25:21;23.95;;;22.75;;
11531;SDS011;5822;51.000;5.874;2022-12-29T06:27:46;27.95;;;26.55;;
11531;SDS011;5822;51.000;5.874;2022-12-29T06:30:12;27.65;;;26.25;;
11531;SDS011;5822;51.000;5.874;2022-12-29T06:32:38;27.73;;;26.38;;
11531;SDS011;5822;51.000;5.874;2022-12-29T06:35:04;17.80;;;16.80;;
11531;SDS011;5822;51.000;5.874;2022-12-29T06:37:33;16.90;;;16.00;;
11531;SDS011;5822;51.000;5.874;2022-12-29T06:39:59;17.00;;;16.10;;
11531;SDS011;5822;51.000;5.874;2022-12-29T06:42:25;16.87;;;15.87;;
11531;SDS011;5822;51.000;5.874;2022-12-29T06:44:50;24.43;;;23.20;;
11531;SDS011;5822;51.000;5.874;2022-12-29T06:47:17;24.20;;;23.00;;
11531;SDS011;5822;51.000;5.874;2022-12-29T06:49:43;30.67;;;29.27;;
11531;SDS011;5822;51.000;5.874;2022-12-29T06:52:09;17.60;;;16.60;;
11531;SDS011;5822;51.000;5.874;2022-12-29T06:54:34;16.97;;;16.07;;
11531;SDS011;5822;51.000;5.874;2022-12-29T06:57:00;17.20;;;16.30;;
11531;SDS011;5822;51.000;5.874;2022-12-29T06:59:26;19.20;;;18.20;;
11531;SDS011;5822;51.000;5.874;2022-12-29T07:01:52;24.30;;;22.90;;
11531;SDS011;5822;51.000;5.874;2022-12-29T07:04:17;26.70;;;25.37;;
11531;SDS011;5822;51.000;5.874;2022-12-29T07:06:43;28.80;;;27.40;;
11531;SDS011;5822;51.000;5.874;2022-12-29T07:09:09;28.83;;;27.43;;
11531;SDS011;5822;51.000;5.874;2022-12-29T07:11:35;17.50;;;16.50;;
11531;SDS011;5822;51.000;5.874;2022-12-29T07:14:01;17.52;;;16.60;;
11531;SDS011;5822;51.000;5.874;2022-12-29T07:16:27;16.90;;;15.90;;
11531;SDS011;5822;51.000;5.874;2022-12-29T07:18:54;22.15;;;21.02;;
11531;SDS011;5822;51.000;5.874;2022-12-29T07:21:20;23.40;;;22.20;;
11531;SDS011;5822;51.000;5.874;2022-12-29T07:23:45;28.33;;;26.83;;
11531;SDS011;5822;51.000;5.874;2022-12-29T07:26:12;29.38;;;27.98;;
11531;SDS011;5822;51.000;5.874;2022-12-29T07:28:39;17.77;;;16.73;;
11531;SDS011;5822;51.000;5.874;2022-12-29T07:31:07;17.75;;;16.75;;
11531;SDS011;5822;51.000;5.874;2022-12-29T07:33:42;17.75;;;16.65;;
11531;SDS011;5822;51.000;5.874;2022-12-29T07:36:08;17.60;;;16.50;;
11531;SDS011;5822;51.000;5.874;2022-12-29T07:38:34;22.95;;;21.75;;
11531;SDS011;5822;51.000;5.874;2022-12-29T07:41:00;23.40;;;22.20;;
11531;SDS011;5822;51.000;5.874;2022-12-29T07:43:25;27.17;;;25.87;;
11531;SDS011;5822;51.000;5.874;2022-12-29T07:45:51;27.87;;;26.50;;
11531;SDS011;5822;51.000;5.874;2022-12-29T07:48:17;17.10;;;16.10;;
11531;SDS011;5822;51.000;5.874;2022-12-29T07:50:43;17.40;;;16.40;;
11531;SDS011;5822;51.000;5.874;2022-12-29T07:53:08;17.60;;;16.50;;
11531;SDS011;5822;51.000;5.874;2022-12-29T07:55:34;19.20;;;18.10;;
11531;SDS011;5822;51.000;5.874;2022-12-29T07:58:00;22.83;;;21.53;;
11531;SDS011;5822;51.000;5.874;2022-12-29T08:00:25;26.58;;;25.17;;
11531;SDS011;5822;51.000;5.874;2022-12-29T08:02:51;21.88;;;20.65;;
11531;SDS011;5822;51.000;5.874;2022-12-29T08:05:17;17.30;;;16.20;;
11531;SDS011;5822;51.000;5.874;2022-12-29T08:07:43;16.98;;;15.98;;
11531;SDS011;5822;51.000;5.874;2022-12-29T08:10:10;16.73;;;15.75;;
11531;SDS011;5822;51.000;5.874;2022-12-29T08:12:40;21.92;;;20.83;;
11531;SDS011;5822;51.000;5.874;2022-12-29T08:15:07;21.75;;;20.58;;
11531;SDS011;5822;51.000;5.874;2022-12-29T08:17:34;24.83;;;23.52;;
11531;SDS011;5822;51.000;5.874;2022-12-29T08:20:00;25.08;;;23.77;;
11531;SDS011;5822;51.000;5.874;2022-12-29T08:22:26;24.02;;;22.83;;
11531;SDS011;5822;51.000;5.874;2022-12-29T08:24:52;17.30;;;16.25;;
11531;SDS011;5822;51.000;5.874;2022-12-29T08:27:17;17.60;;;16.50;;
11531;SDS011;5822;51.000;5.874;2022-12-29T08:29:44;17.10;;;16.00;;
11531;SDS011;5822;51.000;5.874;2022-12-29T08:32:10;21.20;;;20.00;;
11531;SDS011;5822;51.000;5.874;2022-12-29T08:34:35;21.50;;;20.30;;
11531;SDS011;5822;51.000;5.874;2022-12-29T08:37:01;23.37;;;22.17;;
11531;SDS011;5822;51.000;5.874;2022-12-29T08:39:27;23.95;;;22.58;;
11531;SDS011;5822;51.000;5.874;2022-12-29T08:41:53;16.60;;;15.60;;
11531;SDS011;5822;51.000;5.874;2022-12-29T08:44:19;16.30;;;15.30;;
11531;SDS011;5822;51.000;5.874;2022-12-29T08:46:45;17.27;;;16.17;;
11531;SDS011;5822;51.000;5.874;2022-12-29T08:49:10;17.17;;;16.17;;
11531;SDS011;5822;51.000;5.874;2022-12-29T08:51:36;21.58;;;20.30;;
11531;SDS011;5822;51.000;5.874;2022-12-29T08:54:01;21.45;;;20.20;;
11531;SDS011;5822;51.000;5.874;2022-12-29T08:56:27;23.75;;;22.45;;
11531;SDS011;5822;51.000;5.874;2022-12-29T08:58:53;23.58;;;22.27;;
11531;SDS011;5822;51.000;5.874;2022-12-29T09:01:19;17.05;;;16.00;;
11531;SDS011;5822;51.000;5.874;2022-12-29T09:03:46;16.50;;;15.50;;
11531;SDS011;5822;51.000;5.874;2022-12-29T09:06:12;16.60;;;15.57;;
11531;SDS011;5822;51.000;5.874;2022-12-29T09:08:38;18.92;;;17.83;;
11531;SDS011;5822;51.000;5.874;2022-12-29T09:11:12;20.10;;;18.95;;
11531;SDS011;5822;51.000;5.874;2022-12-29T09:13:42;23.90;;;22.60;;
11531;SDS011;5822;51.000;5.874;2022-12-29T09:16:08;16.05;;;15.05;;
11531;SDS011;5822;51.000;5.874;2022-12-29T09:18:33;16.05;;;15.05;;
11531;SDS011;5822;51.000;5.874;2022-12-29T09:21:00;15.98;;;14.95;;
11531;SDS011;5822;51.000;5.874;2022-12-29T09:23:27;15.88;;;14.95;;
11531;SDS011;5822;51.000;5.874;2022-12-29T09:25:53;16.40;;;15.40;;
11531;SDS011;5822;51.000;5.874;2022-12-29T09:28:20;16.00;;;15.00;;
11531;SDS011;5822;51.000;5.874;2022-12-29T09:30:46;17.30;;;16.20;;
11531;SDS011;5822;51.000;5.874;2022-12-29T09:33:12;18.23;;;17.08;;
11531;SDS011;5822;51.000;5.874;2022-12-29T09:35:41;18.67;;;17.67;;
11531;SDS011;5822;51.000;5.874;2022-12-29T09:38:14;18.88;;;17.77;;
11531;SDS011;5822;51.000;5.874;2022-12-29T09:40:40;16.30;;;15.30;;
11531;SDS011;5822;51.000;5.874;2022-12-29T09:45:57;15.65;;;14.55;;
11531;SDS011;5822;51.000;5.874;2022-12-29T09:48:27;15.18;;;14.20;;
11531;SDS011;5822;51.000;5.874;2022-12-29T09:50:58;16.30;;;15.20;;
11531;SDS011;5822;51.000;5.874;2022-12-29T09:53:29;16.25;;;15.25;;
11531;SDS011;5822;51.000;5.874;2022-12-29T09:56:02;17.20;;;16.10;;
11531;SDS011;5822;51.000;5.874;2022-12-29T09:58:32;16.48;;;15.38;;
11531;SDS011;5822;51.000;5.874;2022-12-29T10:01:07;15.50;;;14.40;;
11531;SDS011;5822;51.000;5.874;2022-12-29T10:03:54;15.73;;;14.63;;
11531;SDS011;5822;51.000;5.874;2022-12-29T10:09:22;15.20;;;14.30;;
11531;SDS011;5822;51.000;5.874;2022-12-29T10:15:12;15.60;;;14.60;;
11531;SDS011;5822;51.000;5.874;2022-12-29T10:20:31;15.00;;;14.10;;
11531;SDS011;5822;51.000;5.874;2022-12-29T10:25:54;15.73;;;14.73;;
11531;SDS011;5822;51.000;5.874;2022-12-29T10:28:22;15.55;;;14.63;;
11531;SDS011;5822;51.000;5.874;2022-12-29T10:30:56;15.68;;;14.85;;
11531;SDS011;5822;51.000;5.874;2022-12-29T10:33:26;15.88;;;14.98;;
11531;SDS011;5822;51.000;5.874;2022-12-29T10:35:59;15.45;;;14.45;;
11531;SDS011;5822;51.000;5.874;2022-12-29T10:38:40;15.20;;;14.30;;
11531;SDS011;5822;51.000;5.874;2022-12-29T10:41:21;15.52;;;14.43;;
11531;SDS011;5822;51.000;5.874;2022-12-29T10:43:49;16.02;;;15.02;;
11531;SDS011;5822;51.000;5.874;2022-12-29T10:46:18;16.00;;;14.90;;
11531;SDS011;5822;51.000;5.874;2022-12-29T10:48:49;18.17;;;17.02;;
11531;SDS011;5822;51.000;5.874;2022-12-29T10:53:54;16.77;;;15.68;;
11531;SDS011;5822;51.000;5.874;2022-12-29T10:56:40;16.50;;;15.40;;
11531;SDS011;5822;51.000;5.874;2022-12-29T11:01:52;16.02;;;15.00;;
11531;SDS011;5822;51.000;5.874;2022-12-29T11:07:22;17.23;;;16.02;;
11531;SDS011;5822;51.000;5.874;2022-12-29T11:09:48;15.90;;;14.80;;
11531;SDS011;5822;51.000;5.874;2022-12-29T11:12:28;15.40;;;14.50;;
11531;SDS011;5822;51.000;5.874;2022-12-29T11:17:48;15.70;;;14.80;;
11531;SDS011;5822;51.000;5.874;2022-12-29T11:20:34;15.80;;;14.80;;
11531;SDS011;5822;51.000;5.874;2022-12-29T11:23:21;16.25;;;15.25;;
11531;SDS011;5822;51.000;5.874;2022-12-29T11:28:38;15.07;;;14.18;;
11531;SDS011;5822;51.000;5.874;2022-12-29T11:31:06;14.80;;;13.90;;
11531;SDS011;5822;51.000;5.874;2022-12-29T11:33:33;15.55;;;14.57;;
11531;SDS011;5822;51.000;5.874;2022-12-29T11:36:08;15.77;;;14.80;;
11531;SDS011;5822;51.000;5.874;2022-12-29T11:39:16;16.63;;;15.60;;
11531;SDS011;5822;51.000;5.874;2022-12-29T11:41:51;15.50;;;14.50;;
11531;SDS011;5822;51.000;5.874;2022-12-29T11:44:18;16.13;;;15.02;;
11531;SDS011;5822;51.000;5.874;2022-12-29T11:46:45;15.40;;;14.50;;
11531;SDS011;5822;51.000;5.874;2022-12-29T11:49:19;15.60;;;14.60;;
11531;SDS011;5822;51.000;5.874;2022-12-29T11:51:47;15.90;;;14.90;;
11531;SDS011;5822;51.000;5.874;2022-12-29T11:54:19;16.15;;;15.25;;
11531;SDS011;5822;51.000;5.874;2022-12-29T11:56:55;15.40;;;14.40;;
11531;SDS011;5822;51.000;5.874;2022-12-29T12:05:10;15.40;;;14.50;;
11531;SDS011;5822;51.000;5.874;2022-12-29T12:07:49;16.70;;;15.60;;
11531;SDS011;5822;51.000;5.874;2022-12-29T12:16:18;15.20;;;14.30;;
11531;SDS011;5822;51.000;5.874;2022-12-29T12:21:20;16.10;;;15.00;;
11531;SDS011;5822;51.000;5.874;2022-12-29T12:29:25;15.77;;;14.68;;
11531;SDS011;5822;51.000;5.874;2022-12-29T12:34:51;15.47;;;14.53;;
11531;SDS011;5822;51.000;5.874;2022-12-29T12:43:34;15.75;;;14.65;;
11531;SDS011;5822;51.000;5.874;2022-12-29T12:48:51;15.60;;;14.60;;
11531;SDS011;5822;51.000;5.874;2022-12-29T12:51:38;15.75;;;14.85;;
11531;SDS011;5822;51.000;5.874;2022-12-29T12:59:49;15.47;;;14.40;;
11531;SDS011;5822;51.000;5.874;2022-12-29T13:02:28;15.30;;;14.40;;
11531;SDS011;5822;51.000;5.874;2022-12-29T13:18:21;18.10;;;16.90;;
11531;SDS011;5822;51.000;5.874;2022-12-29T13:21:15;16.00;;;15.00;;
11531;SDS011;5822;51.000;5.874;2022-12-29T13:29:24;18.60;;;17.42;;
11531;SDS011;5822;51.000;5.874;2022-12-29T13:32:20;17.90;;;16.90;;
11531;SDS011;5822;51.000;5.874;2022-12-29T13:37:26;16.30;;;15.30;;
11531;SDS011;5822;51.000;5.874;2022-12-29T13:39:55;16.45;;;15.35;;
11531;SDS011;5822;51.000;5.874;2022-12-29T13:42:38;17.90;;;16.90;;
11531;SDS011;5822;51.000;5.874;2022-12-29T13:45:12;17.50;;;16.50;;
11531;SDS011;5822;51.000;5.874;2022-12-29T13:47:49;15.85;;;14.85;;
11531;SDS011;5822;51.000;5.874;2022-12-29T13:50:21;15.85;;;14.80;;
11531;SDS011;5822;51.000;5.874;2022-12-29T14:01:37;15.48;;;14.48;;
11531;SDS011;5822;51.000;5.874;2022-12-29T14:04:14;15.15;;;14.25;;
11531;SDS011;5822;51.000;5.874;2022-12-29T14:06:47;15.98;;;14.98;;
11531;SDS011;5822;51.000;5.874;2022-12-29T14:12:35;15.35;;;14.35;;
11531;SDS011;5822;51.000;5.874;2022-12-29T14:15:13;15.40;;;14.40;;
11531;SDS011;5822;51.000;5.874;2022-12-29T14:17:45;15.67;;;14.67;;
11531;SDS011;5822;51.000;5.874;2022-12-29T14:23:25;15.27;;;14.27;;
11531;SDS011;5822;51.000;5.874;2022-12-29T14:31:48;15.73;;;14.73;;
11531;SDS011;5822;51.000;5.874;2022-12-29T14:36:36;15.93;;;14.90;;
11531;SDS011;5822;51.000;5.874;2022-12-29T14:47:32;16.17;;;15.13;;
11531;SDS011;5822;51.000;5.874;2022-12-29T14:52:51;17.47;;;16.27;;
11531;SDS011;5822;51.000;5.874;2022-12-29T14:58:31;16.85;;;15.75;;
11531;SDS011;5822;51.000;5.874;2022-12-29T15:01:04;17.00;;;15.80;;
11531;SDS011;5822;51.000;5.874;2022-12-29T15:03:46;17.13;;;15.93;;
11531;SDS011;5822;51.000;5.874;2022-12-29T15:06:17;16.30;;;15.30;;
11531;SDS011;5822;51.000;5.874;2022-12-29T15:08:51;15.85;;;14.85;;
11531;SDS011;5822;51.000;5.874;2022-12-29T15:11:28;15.75;;;14.75;;
11531;SDS011;5822;51.000;5.874;2022-12-29T15:14:02;15.80;;;14.90;;
11531;SDS011;5822;51.000;5.874;2022-12-29T15:16:32;16.00;;;15.00;;
11531;SDS011;5822;51.000;5.874;2022-12-29T15:19:00;16.37;;;15.37;;
11531;SDS011;5822;51.000;5.874;2022-12-29T15:21:31;15.70;;;14.70;;
11531;SDS011;5822;51.000;5.874;2022-12-29T15:23:58;16.15;;;15.05;;
11531;SDS011;5822;51.000;5.874;2022-12-29T15:26:36;15.33;;;14.43;;
11531;SDS011;5822;51.000;5.874;2022-12-29T15:29:03;15.80;;;14.80;;
11531;SDS011;5822;51.000;5.874;2022-12-29T15:31:30;16.77;;;15.70;;
11531;SDS011;5822;51.000;5.874;2022-12-29T15:34:02;16.92;;;15.63;;
11531;SDS011;5822;51.000;5.874;2022-12-29T15:36:39;16.58;;;15.43;;
11531;SDS011;5822;51.000;5.874;2022-12-29T15:42:07;16.92;;;15.90;;
11531;SDS011;5822;51.000;5.874;2022-12-29T15:44:44;15.95;;;14.90;;
11531;SDS011;5822;51.000;5.874;2022-12-29T15:49:39;16.48;;;15.38;;
11531;SDS011;5822;51.000;5.874;2022-12-29T15:52:08;16.60;;;15.30;;
11531;SDS011;5822;51.000;5.874;2022-12-29T15:54:34;16.52;;;15.52;;
11531;SDS011;5822;51.000;5.874;2022-12-29T15:57:01;17.00;;;15.80;;
11531;SDS011;5822;51.000;5.874;2022-12-29T15:59:29;15.77;;;14.77;;
11531;SDS011;5822;51.000;5.874;2022-12-29T16:01:56;16.38;;;15.27;;
11531;SDS011;5822;51.000;5.874;2022-12-29T16:04:24;16.00;;;15.00;;
11531;SDS011;5822;51.000;5.874;2022-12-29T16:11:59;15.82;;;14.82;;
11531;SDS011;5822;51.000;5.874;2022-12-29T16:14:36;15.95;;;15.00;;
11531;SDS011;5822;51.000;5.874;2022-12-29T16:17:03;15.85;;;14.85;;
11531;SDS011;5822;51.000;5.874;2022-12-29T16:19:34;16.73;;;15.63;;
11531;SDS011;5822;51.000;5.874;2022-12-29T16:22:03;16.50;;;15.43;;
11531;SDS011;5822;51.000;5.874;2022-12-29T16:24:36;16.27;;;15.18;;
11531;SDS011;5822;51.000;5.874;2022-12-29T16:29:30;15.83;;;14.83;;
11531;SDS011;5822;51.000;5.874;2022-12-29T16:31:57;16.23;;;15.13;;
11531;SDS011;5822;51.000;5.874;2022-12-29T16:34:33;16.38;;;15.27;;
11531;SDS011;5822;51.000;5.874;2022-12-29T16:42:48;16.30;;;15.10;;
11531;SDS011;5822;51.000;5.874;2022-12-29T16:47:44;19.73;;;18.33;;
11531;SDS011;5822;51.000;5.874;2022-12-29T16:50:34;18.52;;;17.02;;
11531;SDS011;5822;51.000;5.874;2022-12-29T16:53:02;18.15;;;16.75;;
11531;SDS011;5822;51.000;5.874;2022-12-29T16:55:28;17.88;;;16.58;;
11531;SDS011;5822;51.000;5.874;2022-12-29T16:57:54;18.63;;;17.13;;
11531;SDS011;5822;51.000;5.874;2022-12-29T17:00:27;18.92;;;17.52;;
11531;SDS011;5822;51.000;5.874;2022-12-29T17:02:59;18.52;;;17.20;;
11531;SDS011;5822;51.000;5.874;2022-12-29T17:05:26;18.05;;;16.65;;
11531;SDS011;5822;51.000;5.874;2022-12-29T17:07:52;18.02;;;16.77;;
11531;SDS011;5822;51.000;5.874;2022-12-29T17:10:18;17.00;;;15.80;;
11531;SDS011;5822;51.000;5.874;2022-12-29T17:12:44;17.63;;;16.25;;
11531;SDS011;5822;51.000;5.874;2022-12-29T17:15:14;17.67;;;16.47;;
11531;SDS011;5822;51.000;5.874;2022-12-29T17:17:46;17.50;;;16.10;;
11531;SDS011;5822;51.000;5.874;2022-12-29T17:20:27;17.25;;;16.05;;
11531;SDS011;5822;51.000;5.874;2022-12-29T17:22:53;17.10;;;15.90;;
11531;SDS011;5822;51.000;5.874;2022-12-29T17:25:21;19.25;;;18.05;;
11531;SDS011;5822;51.000;5.874;2022-12-29T17:27:59;19.80;;;18.58;;
11531;SDS011;5822;51.000;5.874;2022-12-29T17:30:31;19.90;;;18.60;;
11531;SDS011;5822;51.000;5.874;2022-12-29T17:33:03;19.85;;;18.35;;
11531;SDS011;5822;51.000;5.874;2022-12-29T17:35:32;18.50;;;17.30;;
11531;SDS011;5822;51.000;5.874;2022-12-29T17:37:58;18.30;;;17.00;;
11531;SDS011;5822;51.000;5.874;2022-12-29T17:40:28;18.50;;;17.20;;
11531;SDS011;5822;51.000;5.874;2022-12-29T17:42:57;18.48;;;17.27;;
11531;SDS011;5822;51.000;5.874;2022-12-29T17:45:27;17.20;;;16.00;;